createdAt,value
2022-10-18T00:00:02.328Z,101937.72
2022-10-18T00:03:17.223Z,101931.22
2022-10-18T00:06:25.220Z,101937.03
2022-10-18T00:09:34.363Z,101935.47
2022-10-18T00:12:50.263Z,101940.56
2022-10-18T00:16:18.308Z,101936.28
2022-10-18T00:19:33.222Z,101934.00
2022-10-18T00:22:42.062Z,101924.03
2022-10-18T00:25:50.240Z,101913.22
2022-10-18T00:29:09.260Z,101922.91
2022-10-18T00:32:17.796Z,101916.06
2022-10-18T00:35:32.208Z,101914.19
2022-10-18T00:38:40.344Z,101917.75
2022-10-18T00:41:56.274Z,101917.03
2022-10-18T00:45:23.256Z,101921.03
2022-10-18T00:48:38.358Z,101922.16
2022-10-18T00:51:58.290Z,101915.44
2022-10-18T00:55:07.276Z,101920.84
2022-10-18T00:58:18.189Z,101913.41
2022-10-18T01:01:33.352Z,101909.53
2022-10-18T01:04:42.086Z,101905.91
2022-10-18T01:08:14.273Z,101905.19
2022-10-18T01:11:42.853Z,101900.09
2022-10-18T01:15:16.252Z,101908.63
2022-10-18T01:19:02.296Z,101890.84
2022-10-18T01:22:12.029Z,101889.12
2022-10-18T01:25:42.241Z,101882.44
2022-10-18T01:29:18.270Z,101877.16
2022-10-18T01:32:40.250Z,101879.84
2022-10-18T01:36:04.286Z,101854.81
2022-10-18T01:39:16.980Z,101871.75
2022-10-18T01:42:27.292Z,101878.56
2022-10-18T01:45:42.254Z,101875.88
2022-10-18T01:49:00.280Z,101862.62
2022-10-18T01:55:36.342Z,101859.34
2022-10-18T01:58:54.020Z,101851.66
2022-10-18T02:02:27.309Z,101856.31
2022-10-18T02:05:45.263Z,101862.56
2022-10-18T02:09:04.187Z,101845.66
2022-10-18T02:12:17.316Z,101852.78
2022-10-18T02:15:33.939Z,101830.41
2022-10-18T02:18:55.261Z,101836.41
2022-10-18T02:22:12.421Z,101848.66
2022-10-18T02:25:20.250Z,101839.84
2022-10-18T02:28:35.348Z,101848.06
2022-10-18T02:31:45.611Z,101848.78
2022-10-18T02:35:07.288Z,101806.44
2022-10-18T02:38:11.989Z,101854.19
2022-10-18T02:41:31.303Z,101852.47
2022-10-18T02:44:46.312Z,101848.03
2022-10-18T02:47:54.300Z,101845.72
2022-10-18T02:51:09.302Z,101842.81
2022-10-18T02:54:17.318Z,101842.38
2022-10-18T02:57:25.933Z,101848.81
2022-10-18T03:00:34.341Z,101850.25
2022-10-18T03:03:43.164Z,101832.78
2022-10-18T03:06:51.327Z,101842.28
2022-10-18T03:10:06.327Z,101847.13
2022-10-18T03:13:08.491Z,101849.06
2022-10-18T03:16:24.332Z,101819.41
2022-10-18T03:19:32.578Z,101860.47
2022-10-18T03:22:47.323Z,101865.25
2022-10-18T03:25:49.067Z,101857.09
2022-10-18T03:29:04.400Z,101860.66
2022-10-18T03:32:13.364Z,101863.63
2022-10-18T03:35:22.091Z,101862.97
2022-10-18T03:38:30.335Z,101867.97
2022-10-18T03:41:39.098Z,101864.69
2022-10-18T03:44:47.403Z,101874.56
2022-10-18T03:47:55.864Z,101871.66
2022-10-18T03:51:04.365Z,101867.37
2022-10-18T03:54:19.382Z,101868.63
2022-10-18T03:57:27.966Z,101876.00
2022-10-18T04:00:43.393Z,101874.41
2022-10-18T04:03:58.365Z,101875.41
2022-10-18T04:07:07.342Z,101873.09
2022-10-18T04:10:16.415Z,101867.81
2022-10-18T04:13:25.348Z,101870.37
2022-10-18T04:16:40.588Z,101869.81
2022-10-18T04:19:55.340Z,101865.66
2022-10-18T04:23:03.383Z,101864.91
2022-10-18T04:26:11.870Z,101860.50
2022-10-18T04:29:20.395Z,101854.25
2022-10-18T04:32:29.088Z,101850.59
2022-10-18T04:35:37.516Z,101853.41
2022-10-18T04:38:45.935Z,101853.41
2022-10-18T04:41:54.425Z,101837.50
2022-10-18T04:45:10.387Z,101847.16
2022-10-18T04:48:12.812Z,101845.19
2022-10-18T04:51:27.423Z,101843.09
2022-10-18T04:54:35.361Z,101841.72
2022-10-18T04:57:50.408Z,101840.00
2022-10-18T05:00:59.298Z,101835.31
2022-10-18T05:04:14.409Z,101829.69
2022-10-18T05:07:22.464Z,101828.97
2022-10-18T05:10:38.388Z,101829.22
2022-10-18T05:13:40.209Z,101835.22
2022-10-18T05:16:55.442Z,101834.22
2022-10-18T05:20:04.368Z,101835.81
2022-10-18T05:23:19.411Z,101843.31
2022-10-18T05:26:27.928Z,101831.91
2022-10-18T05:29:42.488Z,101843.97
2022-10-18T05:32:50.464Z,101839.41
2022-10-18T05:36:08.635Z,101839.09
2022-10-18T05:39:17.396Z,101838.69
2022-10-18T05:42:26.131Z,101845.81
2022-10-18T05:45:34.409Z,101844.34
2022-10-18T05:48:44.442Z,101831.47
2022-10-18T05:51:53.626Z,101843.25
2022-10-18T05:55:08.408Z,101837.00
2022-10-18T05:58:17.707Z,101835.53
2022-10-18T06:01:26.105Z,101848.50
2022-10-18T06:04:34.388Z,101841.59
2022-10-18T06:07:49.567Z,101830.25
2022-10-18T06:10:52.604Z,101841.53
2022-10-18T06:14:07.420Z,101843.81
2022-10-18T06:17:15.480Z,101840.25
2022-10-18T06:20:37.469Z,101837.41
2022-10-18T06:23:46.460Z,101847.91
2022-10-18T06:26:55.171Z,101855.72
2022-10-18T06:30:10.456Z,101856.16
2022-10-18T06:33:19.003Z,101866.31
2022-10-18T06:36:33.520Z,101865.38
2022-10-18T06:39:48.445Z,101862.28
2022-10-18T06:43:00.763Z,101872.53
2022-10-18T06:46:26.469Z,101867.44
2022-10-18T06:49:34.573Z,101861.94
2022-10-18T06:52:43.105Z,101859.84
2022-10-18T06:55:51.455Z,101857.72
2022-10-18T06:59:00.340Z,101805.31
2022-10-18T07:02:09.593Z,101868.72
2022-10-18T07:05:19.473Z,101878.97
2022-10-18T07:08:27.607Z,101877.16
2022-10-18T07:11:36.258Z,101879.31
2022-10-18T07:14:44.521Z,101872.53
2022-10-18T07:17:59.488Z,101871.38
2022-10-18T07:21:16.626Z,101868.13
2022-10-18T07:24:24.511Z,101862.56
2022-10-18T07:27:41.940Z,101864.84
2022-10-18T07:31:00.326Z,101858.59
2022-10-18T07:34:19.518Z,101862.16
2022-10-18T07:37:35.827Z,101848.66
2022-10-18T07:40:44.483Z,101849.94
2022-10-18T07:44:00.512Z,101851.38
2022-10-18T07:47:08.500Z,101853.91
2022-10-18T07:50:18.147Z,101848.78
2022-10-18T07:53:26.447Z,101850.03
2022-10-18T07:56:35.023Z,101847.63
2022-10-18T07:59:43.628Z,101845.91
2022-10-18T08:03:00.531Z,101833.03
2022-10-18T08:06:10.491Z,101828.28
2022-10-18T08:09:25.484Z,101822.12
2022-10-18T08:12:27.496Z,101817.28
2022-10-18T08:15:42.571Z,101829.38
2022-10-18T08:18:57.507Z,101806.16
2022-10-18T08:22:12.697Z,101801.31
2022-10-18T08:25:21.520Z,101807.09
2022-10-18T08:28:30.393Z,101796.50
2022-10-18T08:31:39.603Z,101808.94
2022-10-18T08:34:54.563Z,101792.06
2022-10-18T08:37:56.335Z,101801.66
2022-10-18T08:41:36.681Z,101778.00
2022-10-18T08:44:52.475Z,101796.78
2022-10-18T08:48:07.559Z,101794.59
2022-10-18T08:51:31.548Z,101770.97
2022-10-18T08:55:02.558Z,101786.37
2022-10-18T08:58:23.488Z,101777.62
2022-10-18T09:02:08.634Z,101772.63
2022-10-18T09:05:35.578Z,101776.09
2022-10-18T09:09:04.452Z,101765.66
2022-10-18T09:12:36.622Z,101762.34
2022-10-18T09:15:58.521Z,101755.56
2022-10-18T09:19:32.072Z,101746.28
2022-10-18T09:22:59.608Z,101753.97
2022-10-18T09:26:18.300Z,101743.47
2022-10-18T09:29:42.656Z,101742.66
2022-10-18T09:33:10.667Z,101746.91
2022-10-18T09:36:23.494Z,101738.87
2022-10-18T09:39:44.533Z,101743.72
2022-10-18T09:42:55.374Z,101734.69
2022-10-18T09:46:12.582Z,101744.41
2022-10-18T09:49:21.349Z,101733.56
2022-10-18T09:52:51.527Z,101726.31
2022-10-18T09:56:09.565Z,101721.37
2022-10-18T09:59:34.050Z,101710.50
2022-10-18T10:02:42.559Z,101711.69
2022-10-18T10:06:22.531Z,101708.50
2022-10-18T10:09:46.811Z,101709.53
2022-10-18T10:13:28.400Z,101672.28
2022-10-18T10:16:37.271Z,101691.13
2022-10-18T10:20:21.583Z,101679.91
2022-10-18T10:23:27.979Z,101682.94
2022-10-18T10:26:43.910Z,101672.72
2022-10-18T10:29:53.134Z,101672.38
2022-10-18T10:33:08.696Z,101667.75
2022-10-18T10:36:28.622Z,101659.38
2022-10-18T10:39:37.282Z,101659.00
2022-10-18T10:43:32.915Z,101656.75
2022-10-18T10:46:42.414Z,101642.28
2022-10-18T10:50:07.856Z,101643.09
2022-10-18T10:53:38.758Z,101632.31
2022-10-18T10:57:05.216Z,101636.69
2022-10-18T11:00:40.598Z,101627.81
2022-10-18T11:03:55.149Z,101625.69
2022-10-18T11:07:38.349Z,101620.00
2022-10-18T11:10:55.006Z,101613.63
2022-10-18T11:14:26.273Z,101610.28
2022-10-18T11:17:39.480Z,101606.72
2022-10-18T11:21:13.616Z,101597.03
2022-10-18T11:24:23.582Z,101598.38
2022-10-18T11:27:36.588Z,101583.72
2022-10-18T11:31:09.965Z,101585.09
2022-10-18T11:34:38.138Z,101571.38
2022-10-18T11:38:03.667Z,101550.62
2022-10-18T11:41:38.761Z,101560.94
2022-10-18T11:45:04.802Z,101547.16
2022-10-18T11:48:37.624Z,101550.06
2022-10-18T11:52:07.856Z,101546.81
2022-10-18T11:55:41.667Z,101541.03
2022-10-18T11:59:12.779Z,101529.72
2022-10-18T12:02:51.192Z,101523.34
2022-10-18T12:06:02.647Z,101505.22
2022-10-18T12:09:31.831Z,101505.78
2022-10-18T12:12:48.664Z,101502.44
2022-10-18T12:16:04.742Z,101499.69
2022-10-18T12:19:23.709Z,101492.97
2022-10-18T12:22:53.647Z,101491.09
2022-10-18T12:26:08.648Z,101483.47
2022-10-18T12:29:30.211Z,101474.44
2022-10-18T12:33:02.212Z,101472.72
2022-10-18T12:36:39.748Z,101469.00
2022-10-18T12:40:18.488Z,101462.00
2022-10-18T12:43:37.692Z,101464.44
2022-10-18T12:47:02.662Z,101451.09
2022-10-18T12:50:28.875Z,101450.63
2022-10-18T12:53:38.736Z,101432.63
2022-10-18T12:56:48.687Z,101430.13
2022-10-18T12:59:57.805Z,101428.94
2022-10-18T13:03:36.697Z,101423.06
2022-10-18T13:07:21.751Z,101423.31
2022-10-18T13:10:44.140Z,101415.78
2022-10-18T13:14:18.680Z,101413.19
2022-10-18T13:17:43.692Z,101414.81
2022-10-18T13:21:21.746Z,101404.81
2022-10-18T13:24:37.754Z,101405.41
2022-10-18T13:28:11.733Z,101402.69
2022-10-18T13:31:39.819Z,101405.09
2022-10-18T13:34:48.700Z,101401.09
2022-10-18T13:38:05.825Z,101398.88
2022-10-18T13:41:28.286Z,101409.97
2022-10-18T13:44:34.667Z,101406.91
2022-10-18T13:47:49.749Z,101407.88
2022-10-18T13:51:11.239Z,101393.41
2022-10-18T13:54:38.779Z,101380.66
2022-10-18T13:58:07.653Z,101399.59
2022-10-18T14:01:39.052Z,101390.47
2022-10-18T14:05:24.489Z,101387.28
2022-10-18T14:08:42.808Z,101388.25
2022-10-18T14:12:03.780Z,101386.13
2022-10-18T14:15:15.752Z,101379.63
2022-10-18T14:18:37.741Z,101376.25
2022-10-18T14:21:43.431Z,101373.88
2022-10-18T14:25:00.782Z,101366.09
2022-10-18T14:28:36.352Z,101360.19
2022-10-18T14:32:02.680Z,101372.19
2022-10-18T14:35:32.700Z,101370.25
2022-10-18T14:38:38.536Z,101361.78
2022-10-18T14:41:57.931Z,101359.19
2022-10-18T14:48:28.755Z,101348.50
2022-10-18T14:51:42.859Z,101351.25
2022-10-18T14:54:55.016Z,101334.97
2022-10-18T14:58:09.788Z,101328.69
2022-10-18T15:01:20.026Z,101327.47
2022-10-18T15:04:35.777Z,101328.94
2022-10-18T15:07:43.748Z,101320.22
2022-10-18T15:10:53.275Z,101320.34
2022-10-18T15:14:09.724Z,101314.87
2022-10-18T15:17:39.756Z,101319.38
2022-10-18T15:21:15.769Z,101313.00
2022-10-18T15:24:37.748Z,101314.63
2022-10-18T15:27:46.784Z,101308.41
2022-10-18T15:30:55.852Z,101309.84
2022-10-18T15:34:16.821Z,101288.22
2022-10-18T15:37:38.691Z,101306.66
2022-10-18T15:40:47.828Z,101309.91
2022-10-18T15:44:14.233Z,101308.81
2022-10-18T15:47:25.786Z,101308.66
2022-10-18T15:50:44.073Z,101301.41
2022-10-18T15:53:59.787Z,101294.84
2022-10-18T15:57:16.756Z,101296.78
2022-10-18T16:00:27.834Z,101306.06
2022-10-18T16:03:36.588Z,101296.09
2022-10-18T16:06:44.799Z,101296.09
2022-10-18T16:09:53.395Z,101301.25
2022-10-18T16:13:01.796Z,101291.09
2022-10-18T16:16:27.818Z,101291.81
2022-10-18T16:19:42.799Z,101274.37
2022-10-18T16:22:57.806Z,101295.38
2022-10-18T16:26:15.023Z,101290.69
2022-10-18T16:29:48.804Z,101292.62
2022-10-18T16:32:54.667Z,101296.25
2022-10-18T16:36:09.859Z,101292.50
2022-10-18T16:39:18.395Z,101302.06
2022-10-18T16:42:32.998Z,101301.09
2022-10-18T16:45:35.017Z,101303.63
2022-10-18T16:48:50.816Z,101306.25
2022-10-18T16:51:53.965Z,101309.50
2022-10-18T16:55:09.828Z,101307.00
2022-10-18T17:01:32.838Z,101302.19
2022-10-18T17:04:40.812Z,101284.31
2022-10-18T17:07:56.853Z,101300.06
2022-10-18T17:10:59.340Z,101306.38
2022-10-18T17:14:13.885Z,101311.50
2022-10-18T17:17:23.145Z,101241.00
2022-10-18T17:20:45.904Z,101310.50
2022-10-18T17:23:48.071Z,101312.75
2022-10-18T17:27:02.854Z,101309.69
2022-10-18T17:30:05.711Z,101319.41
2022-10-18T17:33:21.839Z,101311.03
2022-10-18T17:36:30.142Z,101320.53
2022-10-18T17:39:38.708Z,101316.31
2022-10-18T17:42:46.847Z,101307.50
2022-10-18T17:45:56.295Z,101292.97
2022-10-18T17:49:04.849Z,101281.94
2022-10-18T17:52:20.220Z,101285.00
2022-10-18T17:55:22.087Z,101296.03
2022-10-18T17:58:37.888Z,101295.16
2022-10-18T18:04:55.928Z,101286.34
2022-10-18T18:08:07.140Z,101283.47
2022-10-18T18:11:17.246Z,101294.47
2022-10-18T18:14:31.863Z,101295.19
2022-10-18T18:17:34.566Z,101290.25
2022-10-18T18:21:01.950Z,101289.06
2022-10-18T18:24:03.905Z,101279.91
2022-10-18T18:27:18.893Z,101285.31
2022-10-18T18:30:28.284Z,101287.38
2022-10-18T18:33:39.923Z,101280.56
2022-10-18T18:36:54.909Z,101269.72
2022-10-18T18:40:03.120Z,101276.84
2022-10-18T18:43:25.070Z,101279.03
2022-10-18T18:46:35.884Z,101281.56
2022-10-18T18:50:05.938Z,101280.41
2022-10-18T18:53:07.985Z,101275.47
2022-10-18T18:56:25.917Z,101269.69
2022-10-18T18:59:41.253Z,101248.62
2022-10-18T19:02:42.965Z,101263.22
2022-10-18T19:06:01.111Z,101256.75
2022-10-18T19:09:06.840Z,101258.81
2022-10-18T19:12:21.908Z,101251.03
2022-10-18T19:15:23.984Z,101255.44
2022-10-18T19:18:40.352Z,101253.06
2022-10-18T19:22:05.250Z,101220.31
2022-10-18T19:25:26.295Z,101239.81
2022-10-18T19:28:35.989Z,101247.25
2022-10-18T19:31:45.316Z,101247.59
2022-10-18T19:34:53.960Z,101261.13
2022-10-18T19:38:03.427Z,101239.44
2022-10-18T19:41:15.024Z,101250.63
2022-10-18T19:44:30.924Z,101249.22
2022-10-18T19:47:32.617Z,101255.34
2022-10-18T19:50:46.920Z,101255.00
2022-10-18T19:53:48.733Z,101228.69
2022-10-18T19:57:18.545Z,101247.13
2022-10-18T20:00:28.923Z,101252.88
2022-10-18T20:03:37.851Z,101256.59
2022-10-18T20:06:52.907Z,101256.09
2022-10-18T20:10:01.965Z,101249.16
2022-10-18T20:13:17.903Z,101245.06
2022-10-18T20:16:27.684Z,101243.19
2022-10-18T20:19:43.010Z,101240.31
2022-10-18T20:22:51.257Z,101234.34
2022-10-18T20:26:09.940Z,101230.97
2022-10-18T20:29:14.829Z,101222.50
2022-10-18T20:32:29.924Z,101222.66
2022-10-18T20:35:38.528Z,101227.53
2022-10-18T20:38:48.975Z,101225.81
2022-10-18T20:42:03.944Z,101221.94
2022-10-18T20:45:13.967Z,101221.56
2022-10-18T20:48:22.520Z,101226.72
2022-10-18T20:51:30.992Z,101225.00
2022-10-18T20:54:39.623Z,101227.69
2022-10-18T20:57:47.959Z,101218.84
2022-10-18T21:01:03.888Z,101229.81
2022-10-18T21:04:18.939Z,101219.06
2022-10-18T21:07:26.966Z,101219.56
2022-10-18T21:10:36.508Z,101215.44
2022-10-18T21:13:44.972Z,101211.22
2022-10-18T21:16:59.993Z,101215.28
2022-10-18T21:20:01.724Z,101205.31
2022-10-18T21:23:23.048Z,101206.66
2022-10-18T21:26:27.156Z,101208.50
2022-10-18T21:29:41.987Z,101212.56
2022-10-18T21:32:50.548Z,101212.41
2022-10-18T21:35:59.010Z,101212.34
2022-10-18T21:39:10.785Z,101209.47
2022-10-18T21:42:24.520Z,101205.00
2022-10-18T21:45:38.973Z,101177.31
2022-10-18T21:48:46.503Z,101193.28
2022-10-18T21:52:04.107Z,101175.87
2022-10-18T21:55:12.849Z,101179.06
2022-10-18T21:58:28.098Z,101172.81
2022-10-18T22:01:32.740Z,101163.88
2022-10-18T22:04:48.162Z,101159.66
2022-10-18T22:07:56.052Z,101161.56
2022-10-18T22:11:12.055Z,101163.16
2022-10-18T22:14:19.992Z,101155.09
2022-10-18T22:17:28.519Z,101162.87
2022-10-18T22:20:46.041Z,101149.00
2022-10-18T22:23:56.507Z,101160.16
2022-10-18T22:27:05.026Z,101139.53
2022-10-18T22:30:14.928Z,101149.00
2022-10-18T22:33:23.326Z,101148.00
2022-10-18T22:36:38.999Z,101151.72
2022-10-18T22:39:53.981Z,101146.34
2022-10-18T22:43:02.091Z,101138.53
2022-10-18T22:46:19.047Z,101141.91
2022-10-18T22:49:27.047Z,101136.81
2022-10-18T22:52:42.059Z,101146.13
2022-10-18T22:55:58.008Z,101151.87
2022-10-18T22:59:14.046Z,101141.34
2022-10-18T23:02:22.051Z,101130.59
2022-10-18T23:05:30.661Z,101145.97
2022-10-18T23:08:39.027Z,101143.09
2022-10-18T23:11:47.653Z,101127.03
2022-10-18T23:14:56.041Z,101138.91
2022-10-18T23:18:12.064Z,101136.19
2022-10-18T23:21:28.101Z,101133.50
2022-10-18T23:24:43.029Z,101124.69
2022-10-18T23:27:44.943Z,101128.37
2022-10-18T23:31:03.142Z,101124.66
2022-10-18T23:34:05.766Z,101123.00
2022-10-18T23:37:20.052Z,101120.47
2022-10-18T23:40:30.033Z,101119.25
2022-10-18T23:43:46.165Z,101121.97
2022-10-18T23:47:01.053Z,101110.12
2022-10-18T23:50:10.273Z,101117.06
2022-10-18T23:53:19.072Z,101099.47
2022-10-18T23:56:34.067Z,101122.13
2022-10-18T23:59:35.992Z,101118.03
